Time;durP1;ratioP1;P1;durP2;ratioP2;P2;SDS_P1;SDS_P2;PMS_P1;PMS_P2;Temp;Humidity;BMP_temperature;BMP_pressure;BME280_temperature;BME280_humidity;BME280_pressure;Samples;Min_cycle;Max_cycle;Signal;HPM_P1;HPM_P2
2024/02/29 00:00:50;;;;;;;21.47;15.13;;;;;;;4.84;78.58;101126.16;5039432;28;20232;-82
2024/02/29 00:03:17;;;;;;;17.67;13.97;;;;;;;4.71;78.36;101127.66;5056985;28;20322;-82
2024/02/29 00:05:43;;;;;;;16.23;14.53;;;;;;;4.85;78.34;101112.38;5057089;28;20235;-83
2024/02/29 00:08:12;;;;;;;18.20;15.17;;;;;;;4.75;78.54;101118.25;5062586;28;20256;-80
2024/02/29 00:10:38;;;;;;;19.50;15.37;;;;;;;4.65;78.31;101116.38;5077725;28;20205;-80
2024/02/29 00:13:05;;;;;;;20.97;15.87;;;;;;;4.62;78.98;101100.78;5065005;28;20207;-82
2024/02/29 00:15:31;;;;;;;19.73;15.37;;;;;;;4.53;78.97;101091.19;5057503;28;20292;-82
2024/02/29 00:17:58;;;;;;;16.60;14.57;;;;;;;4.56;79.43;101084.34;5056673;28;20274;-82
2024/02/29 00:20:24;;;;;;;18.10;15.03;;;;;;;4.54;79.37;101067.94;5056026;28;20647;-83
2024/02/29 00:22:50;;;;;;;16.30;14.37;;;;;;;4.65;79.14;101062.06;5056143;28;20222;-82
2024/02/29 00:25:18;;;;;;;17.23;15.03;;;;;;;4.49;79.28;101059.25;5055713;28;20232;-83
2024/02/29 00:27:44;;;;;;;18.60;13.73;;;;;;;4.48;79.78;101062.69;5054790;28;20209;-83
2024/02/29 00:30:12;;;;;;;16.03;14.33;;;;;;;4.48;79.48;101051.44;5036198;28;20255;-81
2024/02/29 00:32:38;;;;;;;17.90;14.70;;;;;;;4.57;79.25;101043.84;5053471;28;20654;-82
2024/02/29 00:35:05;;;;;;;14.83;12.57;;;;;;;4.61;79.01;101053.38;5056410;28;20228;-83
2024/02/29 00:37:32;;;;;;;16.53;14.53;;;;;;;4.71;78.81;101057.00;5056529;28;20205;-83
2024/02/29 00:39:58;;;;;;;15.60;14.00;;;;;;;4.76;79.07;101050.19;5056882;28;20550;-83
2024/02/29 00:42:26;;;;;;;16.70;13.57;;;;;;;4.81;78.40;101051.09;5056156;28;20231;-83
2024/02/29 00:44:52;;;;;;;16.63;13.83;;;;;;;4.74;78.57;101068.25;5057255;28;20244;-81
2024/02/29 00:47:19;;;;;;;17.37;13.83;;;;;;;4.82;78.24;101076.13;5057511;28;20200;-82
2024/02/29 00:49:45;;;;;;;14.93;13.27;;;;;;;4.91;78.39;101070.22;5064377;28;20240;-82
2024/02/29 00:52:11;;;;;;;18.30;14.57;;;;;;;4.97;77.96;101073.78;5064602;28;20206;-79
2024/02/29 00:54:38;;;;;;;15.43;13.53;;;;;;;4.96;77.27;101084.09;5065780;28;20250;-82
2024/02/29 00:57:04;;;;;;;15.50;13.70;;;;;;;5.02;76.46;101104.00;5072668;28;20310;-81
2024/02/29 00:59:32;;;;;;;18.63;13.97;;;;;;;5.09;75.69;101116.16;5048085;28;20194;-83
2024/02/29 01:01:58;;;;;;;17.17;13.60;;;;;;;5.07;75.54;101123.03;5055862;28;20208;-81
2024/02/29 01:04:25;;;;;;;15.40;13.80;;;;;;;5.09;75.38;101135.16;5066769;28;20225;-81
2024/02/29 01:06:51;;;;;;;16.20;13.63;;;;;;;5.14;75.29;101140.41;5075794;28;20215;-81
2024/02/29 01:09:20;;;;;;;14.70;13.03;;;;;;;5.18;75.30;101149.97;5065758;28;20263;-81
2024/02/29 01:11:48;;;;;;;14.73;13.23;;;;;;;5.17;75.17;101154.28;5059393;28;20216;-82
2024/02/29 01:14:14;;;;;;;15.23;13.67;;;;;;;5.09;75.27;101171.38;5062329;28;20255;-81
2024/02/29 01:16:42;;;;;;;14.47;13.03;;;;;;;5.17;74.97;101161.13;5059091;28;20205;-82
2024/02/29 01:19:08;;;;;;;14.37;12.87;;;;;;;5.23;75.59;101150.00;5059484;28;20626;-82
2024/02/29 01:21:35;;;;;;;13.97;12.33;;;;;;;5.09;76.05;101150.66;5060407;28;20270;-83
2024/02/29 01:24:01;;;;;;;13.37;11.97;;;;;;;4.91;75.32;101159.03;5056105;28;20224;-82
2024/02/29 01:26:27;;;;;;;15.10;13.50;;;;;;;5.00;75.49;101140.22;5055039;28;20675;-82
2024/02/29 01:28:54;;;;;;;13.57;12.17;;;;;;;5.00;75.20;101129.84;5047739;28;20270;-83
2024/02/29 01:31:20;;;;;;;15.33;13.67;;;;;;;5.01;76.00;101125.53;5041123;28;20207;-81
2024/02/29 01:33:48;;;;;;;12.83;11.53;;;;;;;4.91;76.08;101106.44;5057393;28;20304;-82
2024/02/29 01:36:14;;;;;;;14.43;12.60;;;;;;;4.95;76.51;101103.91;5055708;28;20230;-83
2024/02/29 01:38:40;;;;;;;14.53;12.13;;;;;;;4.85;75.35;101108.91;5054843;28;20208;-81
2024/02/29 01:41:07;;;;;;;13.10;11.73;;;;;;;4.83;75.97;101106.31;5049391;28;20215;-81
2024/02/29 01:43:33;;;;;;;13.57;12.17;;;;;;;4.92;75.77;101103.88;5060655;28;20228;-80
2024/02/29 01:46:12;;;;;;;14.07;12.63;;;;;;;4.97;75.76;101101.34;5055968;28;20243;-82
2024/02/29 01:48:38;;;;;;;12.93;10.93;;;;;;;4.95;75.22;101115.97;5056213;28;20210;-82
2024/02/29 01:51:06;;;;;;;14.90;12.87;;;;;;;4.91;74.91;101119.34;5055279;28;20437;-81
2024/02/29 01:53:33;;;;;;;13.17;11.90;;;;;;;4.90;75.33;101130.56;5055833;28;20258;-82
2024/02/29 01:56:00;;;;;;;13.33;11.93;;;;;;;4.98;74.65;101128.97;5055508;28;20255;-82
2024/02/29 01:58:27;;;;;;;13.90;12.40;;;;;;;5.08;74.88;101124.81;5050105;28;20234;-80
2024/02/29 02:00:53;;;;;;;14.50;12.23;;;;;;;5.13;74.73;101128.31;5044797;28;20234;-82
2024/02/29 02:03:20;;;;;;;13.33;12.03;;;;;;;5.14;74.04;101130.06;5054496;28;20307;-83
2024/02/29 02:05:46;;;;;;;18.07;12.60;;;;;;;5.33;73.82;101124.28;5055250;28;20227;-81
2024/02/29 02:08:13;;;;;;;13.87;12.53;;;;;;;5.18;74.67;101137.88;5056854;28;20243;-81
2024/02/29 02:10:39;;;;;;;11.90;10.63;;;;;;;5.23;74.93;101124.13;5055728;28;20406;-81
2024/02/29 02:13:05;;;;;;;12.83;11.50;;;;;;;5.22;74.66;101112.91;5066062;28;20224;-79
2024/02/29 02:15:32;;;;;;;12.77;11.53;;;;;;;5.20;74.86;101114.63;5068427;28;20228;-79
2024/02/29 02:17:58;;;;;;;12.30;11.00;;;;;;;5.13;74.44;101117.94;5058828;28;20209;-82
2024/02/29 02:20:26;;;;;;;16.60;12.53;;;;;;;5.15;74.46;101111.09;5056705;28;20630;-81
2024/02/29 02:22:52;;;;;;;13.20;11.90;;;;;;;5.17;73.86;101106.78;5055750;28;20779;-83
2024/02/29 02:25:18;;;;;;;12.23;11.03;;;;;;;5.24;74.38;101124.16;5054797;28;20251;-83
2024/02/29 02:27:45;;;;;;;13.83;12.40;;;;;;;5.18;73.47;101124.94;5058173;28;20201;-83
2024/02/29 02:30:12;;;;;;;13.50;12.00;;;;;;;5.20;73.61;101139.63;5042990;28;20208;-82
2024/02/29 02:32:39;;;;;;;13.27;11.87;;;;;;;5.23;73.33;101142.25;5051420;28;20207;-82
2024/02/29 02:35:06;;;;;;;14.03;12.23;;;;;;;5.29;73.83;101124.22;5055299;28;20773;-83
2024/02/29 02:37:36;;;;;;;13.53;12.03;;;;;;;5.31;73.16;101114.75;5055741;28;20208;-82
2024/02/29 02:40:04;;;;;;;13.07;11.70;;;;;;;5.28;73.40;101125.06;5057262;28;20207;-81
2024/02/29 02:42:31;;;;;;;12.67;11.40;;;;;;;5.26;73.82;101117.28;5066501;28;20213;-81
2024/02/29 02:44:57;;;;;;;12.57;11.23;;;;;;;5.25;73.65;101123.31;5056263;28;20255;-81
2024/02/29 02:47:23;;;;;;;13.07;11.67;;;;;;;5.28;73.77;101118.19;5054869;28;20796;-81
2024/02/29 02:49:50;;;;;;;12.77;10.50;;;;;;;5.25;73.78;101118.16;5055089;28;20208;-82
2024/02/29 02:52:16;;;;;;;13.27;11.87;;;;;;;5.19;73.59;101112.84;5056216;28;20258;-82
2024/02/29 02:54:44;;;;;;;12.17;10.87;;;;;;;5.11;74.33;101112.78;5054379;28;20221;-82
2024/02/29 02:57:10;;;;;;;10.93;9.83;;;;;;;5.11;74.33;101099.84;5053458;28;20624;-82
2024/02/29 02:59:37;;;;;;;11.80;10.60;;;;;;;5.01;74.44;101097.09;5040079;28;20248;-81
2024/02/29 03:02:03;;;;;;;12.97;11.67;;;;;;;4.95;74.21;101090.97;5043678;28;20263;-81
2024/02/29 03:04:29;;;;;;;14.67;11.40;;;;;;;4.98;74.21;101088.44;5053401;28;20226;-82
2024/02/29 03:06:56;;;;;;;12.23;11.03;;;;;;;4.98;75.24;101072.91;5053283;28;20270;-82
2024/02/29 03:09:22;;;;;;;14.90;12.10;;;;;;;5.01;75.02;101053.97;5052855;28;20210;-81
2024/02/29 03:11:50;;;;;;;12.47;11.17;;;;;;;5.02;74.67;101054.84;5053003;28;20586;-82
2024/02/29 03:14:16;;;;;;;11.70;10.50;;;;;;;4.98;75.06;101043.59;5057108;28;20757;-81
2024/02/29 03:16:42;;;;;;;12.10;10.90;;;;;;;4.98;74.80;101025.47;5058000;28;20217;-80
2024/02/29 03:19:10;;;;;;;11.43;10.37;;;;;;;4.97;74.46;101021.13;5057330;28;20213;-82
2024/02/29 03:21:36;;;;;;;12.40;11.10;;;;;;;4.98;74.87;101021.16;5059071;28;20214;-82
2024/02/29 03:24:02;;;;;;;13.17;11.30;;;;;;;4.95;74.61;101023.69;5057319;28;20279;-80
2024/02/29 03:26:29;;;;;;;12.60;11.40;;;;;;;4.91;74.75;101015.88;5056726;28;20204;-82
2024/02/29 03:28:56;;;;;;;11.27;10.17;;;;;;;4.85;74.87;101008.91;5048814;28;20213;-82
2024/02/29 03:31:23;;;;;;;12.00;10.70;;;;;;;4.73;75.12;101007.03;5046379;28;20261;-81
2024/02/29 03:33:49;;;;;;;11.60;10.50;;;;;;;4.68;76.15;101007.81;5060645;28;20259;-81
2024/02/29 03:36:15;;;;;;;14.00;11.43;;;;;;;4.69;75.45;100989.72;5048881;28;20212;-82
2024/02/29 03:38:42;;;;;;;13.87;12.37;;;;;;;4.67;75.55;100986.25;5057072;28;20254;-81
2024/02/29 03:41:08;;;;;;;14.37;11.83;;;;;;;4.65;75.80;100981.91;5055587;28;20204;-78
2024/02/29 03:43:35;;;;;;;14.17;12.73;;;;;;;4.64;75.53;100980.16;5056640;28;20274;-83
2024/02/29 03:46:03;;;;;;;14.93;13.50;;;;;;;4.75;75.12;100978.59;5057026;28;20227;-82
2024/02/29 03:48:29;;;;;;;12.53;11.23;;;;;;;4.86;74.82;100978.75;5056640;28;20207;-81
2024/02/29 03:50:56;;;;;;;13.97;12.47;;;;;;;4.87;74.13;100996.00;5056605;28;20211;-80
2024/02/29 03:53:22;;;;;;;14.47;13.07;;;;;;;4.82;73.83;101013.19;5056767;28;20538;-81
2024/02/29 03:55:49;;;;;;;15.03;11.97;;;;;;;4.90;74.72;101007.25;5056158;28;20226;-80
2024/02/29 03:58:15;;;;;;;13.57;12.17;;;;;;;5.00;73.58;100994.47;5056281;28;20253;-81
2024/02/29 04:00:42;;;;;;;14.30;12.67;;;;;;;4.83;73.50;101008.03;5048747;28;20204;-81
2024/02/29 04:03:10;;;;;;;13.23;11.83;;;;;;;4.86;74.21;101012.38;5055602;28;20208;-81
2024/02/29 04:05:36;;;;;;;15.13;12.63;;;;;;;4.82;73.93;101018.38;5056646;28;20231;-83
2024/02/29 04:08:03;;;;;;;12.77;11.47;;;;;;;4.78;74.23;101017.44;5055767;28;20220;-81
2024/02/29 04:10:30;;;;;;;13.77;12.37;;;;;;;4.86;73.35;101012.38;5056361;28;20737;-82
2024/02/29 04:12:57;;;;;;;13.80;12.40;;;;;;;4.86;73.48;101025.31;5057272;28;20240;-81
2024/02/29 04:15:23;;;;;;;13.87;12.47;;;;;;;4.87;72.98;101029.63;5056339;28;20303;-81
2024/02/29 04:17:49;;;;;;;13.47;11.90;;;;;;;4.84;73.33;101025.28;5064309;28;20206;-82
2024/02/29 04:20:17;;;;;;;13.13;11.83;;;;;;;4.91;72.96;101028.81;5055684;28;20213;-82
2024/02/29 04:22:44;;;;;;;16.03;12.23;;;;;;;4.94;72.30;101026.28;5056734;28;20283;-83
2024/02/29 04:25:10;;;;;;;13.23;11.83;;;;;;;4.95;72.17;101028.88;5054664;28;20770;-82
2024/02/29 04:27:36;;;;;;;13.47;12.07;;;;;;;4.92;72.55;101034.03;5054933;28;20208;-82
2024/02/29 04:30:03;;;;;;;13.40;12.00;;;;;;;4.95;72.94;101040.94;5039197;28;20259;-83
2024/02/29 04:32:29;;;;;;;13.10;11.80;;;;;;;4.96;72.83;101022.00;5049006;28;20288;-82
2024/02/29 04:34:56;;;;;;;12.67;11.47;;;;;;;4.86;71.88;101033.94;5054988;28;20276;-82
2024/02/29 04:37:24;;;;;;;12.07;10.77;;;;;;;4.85;71.93;101041.66;5056939;28;20706;-82
2024/02/29 04:39:50;;;;;;;12.87;11.47;;;;;;;4.97;71.67;101041.84;5057228;28;20202;-82
2024/02/29 04:42:16;;;;;;;13.27;11.87;;;;;;;5.06;72.24;101039.38;5063782;28;20760;-80
2024/02/29 04:44:43;;;;;;;13.07;11.87;;;;;;;5.07;72.34;101048.88;5057637;28;20224;-83
2024/02/29 04:47:09;;;;;;;13.17;11.87;;;;;;;5.03;71.73;101052.25;5056418;28;20670;-82
2024/02/29 04:49:35;;;;;;;14.50;12.67;;;;;;;5.13;71.65;101048.97;5055896;28;20212;-81
2024/02/29 04:52:02;;;;;;;15.07;12.63;;;;;;;5.05;71.80;101053.16;5055610;28;20251;-82
2024/02/29 04:54:30;;;;;;;13.60;12.20;;;;;;;5.06;71.55;101052.31;5055873;28;20220;-83
2024/02/29 04:56:57;;;;;;;13.53;11.33;;;;;;;5.06;71.39;101044.56;5056234;28;20204;-81
2024/02/29 04:59:23;;;;;;;15.43;12.20;;;;;;;4.88;71.51;101055.53;5042981;28;20208;-81
2024/02/29 05:01:50;;;;;;;14.43;12.93;;;;;;;5.01;72.20;101053.09;5053673;28;20205;-80
2024/02/29 05:04:16;;;;;;;12.90;11.60;;;;;;;4.99;72.25;101045.31;5055573;28;20778;-80
2024/02/29 05:06:42;;;;;;;12.63;11.43;;;;;;;5.04;72.56;101038.50;5054781;28;20265;-82
2024/02/29 05:09:09;;;;;;;12.70;11.50;;;;;;;5.06;71.86;101036.78;5055212;28;20209;-82
2024/02/29 05:11:36;;;;;;;13.47;11.20;;;;;;;5.06;72.33;101034.22;5054710;28;20749;-82
2024/02/29 05:14:05;;;;;;;13.80;12.47;;;;;;;5.13;72.65;101024.78;5055215;28;20278;-83
2024/02/29 05:16:31;;;;;;;13.03;11.83;;;;;;;5.03;71.83;101028.97;5054920;28;20228;-83
2024/02/29 05:18:58;;;;;;;14.03;12.53;;;;;;;4.98;71.73;101030.66;5056373;28;20201;-83
2024/02/29 05:21:24;;;;;;;14.33;12.83;;;;;;;5.01;71.60;101035.84;5048022;28;20232;-83
2024/02/29 05:23:50;;;;;;;13.47;12.07;;;;;;;5.06;71.84;101038.53;5056470;28;20231;-79
2024/02/29 05:26:17;;;;;;;12.40;11.20;;;;;;;5.07;72.11;101033.34;5051750;28;20231;-80
2024/02/29 05:28:44;;;;;;;12.13;11.03;;;;;;;5.05;72.55;101027.28;5056262;28;20205;-80
2024/02/29 05:31:11;;;;;;;13.07;11.77;;;;;;;5.00;72.23;101033.28;5041456;28;20207;-79
2024/02/29 05:33:38;;;;;;;12.07;10.87;;;;;;;4.91;71.51;101029.69;5056575;28;20263;-80
2024/02/29 05:36:05;;;;;;;11.93;10.83;;;;;;;4.89;72.60;101025.34;5053312;28;20210;-82
2024/02/29 05:38:31;;;;;;;12.23;11.03;;;;;;;4.94;72.19;101013.34;5056757;28;20668;-81
2024/02/29 05:40:58;;;;;;;12.57;11.27;;;;;;;4.71;72.51;101018.19;5057424;28;20212;-80
2024/02/29 05:43:25;;;;;;;12.53;11.40;;;;;;;4.77;73.32;101005.34;5055910;28;20203;-81
2024/02/29 05:45:52;;;;;;;11.80;10.70;;;;;;;4.75;73.08;100983.78;5056434;28;20228;-80
2024/02/29 05:48:19;;;;;;;12.00;10.87;;;;;;;4.62;73.47;100975.00;5061845;28;20208;-79
2024/02/29 05:50:45;;;;;;;12.00;10.90;;;;;;;4.44;73.33;100967.84;5061369;28;20259;-79
2024/02/29 05:53:11;;;;;;;13.67;11.40;;;;;;;4.68;73.33;100953.53;5068891;28;20287;-81
2024/02/29 05:55:38;;;;;;;11.73;10.63;;;;;;;4.73;73.45;100947.53;5058064;28;20221;-78
2024/02/29 05:58:05;;;;;;;11.40;10.40;;;;;;;4.84;73.72;100945.13;5057976;28;20205;-80
2024/02/29 06:00:31;;;;;;;12.23;11.03;;;;;;;4.85;73.23;100945.97;5038313;28;20722;-80
2024/02/29 06:02:59;;;;;;;13.23;11.17;;;;;;;4.78;72.06;100960.56;5046654;28;20209;-79
2024/02/29 06:05:25;;;;;;;12.73;11.43;;;;;;;4.86;71.71;100963.25;5059176;28;20236;-80
2024/02/29 06:07:52;;;;;;;12.30;11.20;;;;;;;4.78;72.95;100960.56;5060573;28;20283;-80
2024/02/29 06:10:19;;;;;;;11.93;10.73;;;;;;;4.82;73.32;100964.06;5059835;28;20211;-78
2024/02/29 06:12:45;;;;;;;11.90;10.83;;;;;;;4.84;73.32;100957.19;5058580;28;20206;-79
2024/02/29 06:15:12;;;;;;;11.67;10.47;;;;;;;4.81;73.31;100952.81;5058869;28;20223;-79
2024/02/29 06:17:38;;;;;;;11.17;10.07;;;;;;;4.86;73.59;100953.75;5054449;28;20677;-78
2024/02/29 06:20:10;;;;;;;11.87;10.67;;;;;;;4.82;73.08;100953.72;5054233;28;20605;-79
2024/02/29 06:22:36;;;;;;;11.83;10.73;;;;;;;4.85;72.76;100954.59;5055959;28;20666;-79
2024/02/29 06:25:04;;;;;;;14.20;11.27;;;;;;;4.83;72.37;100971.81;5055007;28;20254;-79
2024/02/29 06:27:30;;;;;;;13.10;11.70;;;;;;;4.86;72.58;100971.00;5048278;28;20238;-79
2024/02/29 06:29:56;;;;;;;12.63;11.40;;;;;;;4.86;73.09;100966.69;5044203;28;20268;-78
2024/02/29 06:32:23;;;;;;;12.97;11.77;;;;;;;4.96;72.43;100960.78;5054755;28;20572;-79
2024/02/29 06:34:49;;;;;;;13.73;12.33;;;;;;;4.98;72.15;100965.97;5059827;28;20657;-80
2024/02/29 06:37:17;;;;;;;12.83;11.60;;;;;;;5.17;71.52;100983.47;5054213;28;20205;-79
2024/02/29 06:39:44;;;;;;;13.90;12.40;;;;;;;5.26;71.13;100987.00;5054691;28;20208;-79
2024/02/29 06:42:10;;;;;;;13.63;12.33;;;;;;;5.31;71.70;100995.69;5054011;28;20687;-80
2024/02/29 06:44:37;;;;;;;13.40;12.10;;;;;;;5.31;70.59;101003.44;5054976;28;20259;-79
2024/02/29 06:47:04;;;;;;;13.70;12.50;;;;;;;5.43;71.02;101016.56;5054363;28;20213;-78
2024/02/29 06:49:30;;;;;;;14.53;12.83;;;;;;;5.56;70.99;101008.06;5054037;28;20262;-80
2024/02/29 06:51:56;;;;;;;14.37;13.00;;;;;;;5.44;70.14;101017.41;5054941;28;20217;-79
2024/02/29 06:54:24;;;;;;;14.63;13.23;;;;;;;5.31;70.96;101017.28;5054438;28;20286;-80
2024/02/29 06:56:50;;;;;;;18.17;13.83;;;;;;;5.30;71.85;101010.34;5053804;28;20273;-80
2024/02/29 06:59:17;;;;;;;15.20;13.77;;;;;;;5.23;72.08;101008.53;5052517;28;20639;-79
2024/02/29 07:01:43;;;;;;;14.83;13.40;;;;;;;5.30;72.21;100987.06;5039321;28;20208;-80
2024/02/29 07:04:10;;;;;;;14.13;12.83;;;;;;;5.28;71.96;100995.66;5055908;28;20264;-80
2024/02/29 07:06:36;;;;;;;15.00;13.17;;;;;;;5.27;72.41;100978.38;5054080;28;20214;-79
2024/02/29 07:09:03;;;;;;;13.43;12.13;;;;;;;5.24;72.83;100970.59;5053293;28;20210;-79
2024/02/29 07:11:31;;;;;;;15.27;13.67;;;;;;;5.35;72.28;100976.75;5057072;28;20208;-80
2024/02/29 07:13:57;;;;;;;14.07;12.57;;;;;;;5.41;71.95;100975.94;5058645;28;20218;-80
2024/02/29 07:16:25;;;;;;;13.40;12.10;;;;;;;5.49;72.80;100977.78;5053910;28;20208;-80
2024/02/29 07:18:51;;;;;;;14.43;13.10;;;;;;;5.51;73.37;100970.00;5060098;28;20208;-78
2024/02/29 07:21:18;;;;;;;14.63;13.23;;;;;;;5.60;73.58;100951.97;5056861;28;20208;-80
2024/02/29 07:23:44;;;;;;;15.27;13.07;;;;;;;5.65;71.84;100958.09;5059446;28;20280;-80
2024/02/29 07:26:10;;;;;;;13.73;12.23;;;;;;;5.73;71.53;100961.63;5055935;28;20703;-80
2024/02/29 07:28:38;;;;;;;14.17;12.77;;;;;;;5.71;71.62;100983.19;5049331;28;20210;-81
2024/02/29 07:31:05;;;;;;;13.80;12.37;;;;;;;5.72;70.27;100990.09;5033270;28;20237;-78
2024/02/29 07:33:34;;;;;;;14.67;13.27;;;;;;;5.78;70.25;101003.09;5059907;28;20206;-78
2024/02/29 07:36:01;;;;;;;14.20;12.83;;;;;;;5.68;69.95;101017.66;5051201;28;20700;-77
2024/02/29 07:38:27;;;;;;;14.27;12.97;;;;;;;5.87;69.34;101026.50;5054290;28;20236;-80
2024/02/29 07:40:53;;;;;;;15.43;13.93;;;;;;;5.96;69.46;101031.78;5057653;28;20200;-80
2024/02/29 07:43:20;;;;;;;15.30;13.83;;;;;;;6.21;69.00;101038.94;5054100;28;20271;-79
2024/02/29 07:45:47;;;;;;;13.47;12.27;;;;;;;6.09;67.63;101063.88;5055258;28;20278;-81
2024/02/29 07:48:14;;;;;;;14.30;12.97;;;;;;;6.25;67.96;101080.47;5054059;28;20212;-79
2024/02/29 07:50:41;;;;;;;14.37;12.97;;;;;;;6.23;67.99;101087.34;5054387;28;20228;-79
2024/02/29 07:53:07;;;;;;;14.73;12.60;;;;;;;6.40;67.98;101097.84;5056278;28;20761;-81
2024/02/29 07:55:33;;;;;;;13.43;12.23;;;;;;;6.47;68.14;101098.78;5053631;28;20221;-78
2024/02/29 07:58:00;;;;;;;13.27;11.90;;;;;;;6.58;67.83;101091.97;5053113;28;20259;-79
2024/02/29 08:00:27;;;;;;;13.53;12.23;;;;;;;6.55;68.72;101097.13;5044483;28;20264;-79
2024/02/29 08:02:54;;;;;;;14.40;12.97;;;;;;;6.64;67.66;101089.44;5051389;28;20263;-80
2024/02/29 08:05:21;;;;;;;14.63;12.30;;;;;;;6.60;68.05;101098.06;5056489;28;20264;-80
2024/02/29 08:07:48;;;;;;;13.50;12.20;;;;;;;6.68;67.25;101104.16;5056840;28;20223;-79
2024/02/29 08:10:16;;;;;;;14.50;12.97;;;;;;;6.70;67.30;101102.44;5057515;28;20648;-79
2024/02/29 08:12:43;;;;;;;14.60;13.30;;;;;;;6.51;68.62;101110.94;5057775;28;20657;-79
2024/02/29 08:15:10;;;;;;;14.37;12.93;;;;;;;6.51;69.02;101088.44;5057927;28;20232;-80
2024/02/29 08:17:36;;;;;;;14.83;13.23;;;;;;;6.51;68.66;101088.44;5056772;28;20206;-80
2024/02/29 08:20:07;;;;;;;13.33;11.90;;;;;;;6.52;68.18;101081.53;5057562;28;20202;-80
2024/02/29 08:22:34;;;;;;;14.37;12.73;;;;;;;6.61;68.60;101085.94;5057536;28;20248;-80
2024/02/29 08:25:00;;;;;;;15.07;13.57;;;;;;;6.78;67.75;101081.75;5059198;28;20259;-79
2024/02/29 08:27:27;;;;;;;13.23;12.03;;;;;;;6.78;68.33;101080.88;5056334;28;20676;-80
2024/02/29 08:29:53;;;;;;;14.30;12.93;;;;;;;6.90;68.37;101061.06;5043206;28;20203;-79
2024/02/29 08:32:20;;;;;;;14.37;12.87;;;;;;;6.94;68.31;101054.16;5053752;28;20228;-79
2024/02/29 08:34:46;;;;;;;15.87;14.27;;;;;;;7.13;67.79;101052.53;5078291;28;20248;-79
2024/02/29 08:37:14;;;;;;;13.47;12.27;;;;;;;7.32;67.37;101059.56;5066486;28;20224;-79
2024/02/29 08:39:41;;;;;;;15.00;13.57;;;;;;;7.40;68.08;101062.19;5049423;28;20275;-79
2024/02/29 08:42:07;;;;;;;14.30;12.90;;;;;;;7.49;67.20;101069.13;5057239;28;20224;-79
2024/02/29 08:44:33;;;;;;;13.47;12.27;;;;;;;7.50;67.30;101070.88;5057795;28;20599;-79
2024/02/29 08:47:03;;;;;;;15.77;13.93;;;;;;;7.52;67.51;101080.41;5057084;28;20201;-79
2024/02/29 08:49:30;;;;;;;15.00;13.60;;;;;;;7.55;67.95;101066.56;5056463;28;20699;-79
2024/02/29 08:51:56;;;;;;;14.77;13.30;;;;;;;7.66;67.91;101064.88;5057148;28;20638;-80
2024/02/29 08:54:24;;;;;;;14.77;13.37;;;;;;;7.45;67.34;101080.38;5065340;28;20666;-80
2024/02/29 08:56:50;;;;;;;16.03;14.43;;;;;;;7.60;68.01;101076.97;5056421;28;20280;-80
2024/02/29 08:59:17;;;;;;;14.80;13.17;;;;;;;7.63;66.92;101083.06;5039477;28;20210;-79
2024/02/29 09:01:43;;;;;;;15.17;13.77;;;;;;;7.75;67.57;101080.50;5048775;28;20228;-79
2024/02/29 09:04:09;;;;;;;16.33;14.73;;;;;;;7.79;67.53;101077.88;5056324;28;20877;-80
2024/02/29 09:06:35;;;;;;;16.23;14.63;;;;;;;7.86;66.88;101079.66;5055878;28;20225;-79
2024/02/29 09:09:02;;;;;;;17.60;15.83;;;;;;;7.95;67.13;101083.16;5057528;28;20267;-79
2024/02/29 09:11:30;;;;;;;15.37;13.77;;;;;;;7.97;66.99;101070.16;5056097;28;20680;-80
2024/02/29 09:13:56;;;;;;;15.70;14.07;;;;;;;8.02;67.61;101062.34;5057349;28;20228;-80
2024/02/29 09:16:23;;;;;;;15.33;13.93;;;;;;;8.10;67.52;101058.88;5064544;28;20204;-79
2024/02/29 09:18:49;;;;;;;15.53;14.03;;;;;;;8.15;67.31;101046.78;5056293;28;20232;-79
2024/02/29 09:21:16;;;;;;;14.87;13.40;;;;;;;8.13;67.30;101055.44;5062793;28;20204;-80
2024/02/29 09:23:43;;;;;;;16.57;14.70;;;;;;;8.11;66.68;101064.97;5048513;28;20252;-80
2024/02/29 09:26:12;;;;;;;16.60;15.10;;;;;;;8.28;66.72;101059.78;5055674;28;20233;-77
2024/02/29 09:28:40;;;;;;;15.87;14.37;;;;;;;8.39;66.17;101057.19;5061591;28;20263;-80
2024/02/29 09:31:06;;;;;;;15.97;14.40;;;;;;;8.32;65.89;101059.81;5043506;28;20205;-81
2024/02/29 09:33:33;;;;;;;18.08;16.58;;;;;;;8.46;65.84;101052.03;5053540;28;20486;-80
2024/02/29 09:35:59;;;;;;;16.00;14.50;;;;;;;8.57;66.63;101049.41;5056374;28;20322;-80
2024/02/29 09:38:27;;;;;;;15.60;14.00;;;;;;;8.60;65.76;101054.59;5067426;28;20287;-80
2024/02/29 09:40:53;;;;;;;15.57;14.07;;;;;;;8.66;65.02;101071.94;5057859;28;20660;-81
2024/02/29 09:43:21;;;;;;;15.07;13.67;;;;;;;8.49;65.50;101085.84;5059355;28;20236;-80
2024/02/29 09:45:51;;;;;;;14.37;13.03;;;;;;;8.68;65.72;101085.81;5058264;28;20228;-80
2024/02/29 09:48:17;;;;;;;14.67;13.37;;;;;;;8.75;65.71;101075.41;5058487;28;20206;-80
2024/02/29 09:50:43;;;;;;;15.70;14.23;;;;;;;8.82;66.36;101062.38;5058378;28;20447;-79
2024/02/29 09:53:11;;;;;;;16.65;15.15;;;;;;;8.75;64.37;101078.00;5056009;28;20432;-81
2024/02/29 09:55:37;;;;;;;14.87;13.57;;;;;;;8.87;65.14;101074.53;5064305;28;20249;-80
2024/02/29 09:58:05;;;;;;;15.17;13.77;;;;;;;8.92;65.47;101071.94;5052326;28;20206;-80
2024/02/29 10:00:32;;;;;;;14.00;12.77;;;;;;;8.90;64.63;101081.44;5038849;28;20252;-83
2024/02/29 10:03:01;;;;;;;14.93;13.37;;;;;;;9.02;65.17;101081.44;5056747;28;20300;-81
2024/02/29 10:05:28;;;;;;;15.03;13.63;;;;;;;8.93;64.72;101081.47;5056051;28;20639;-82
2024/02/29 10:07:54;;;;;;;15.30;13.90;;;;;;;8.91;64.90;101078.84;5055531;28;20236;-81
2024/02/29 10:10:21;;;;;;;16.67;13.13;;;;;;;9.08;64.18;101077.97;5065263;28;20615;-81
2024/02/29 10:12:54;;;;;;;14.03;12.73;;;;;;;9.15;64.12;101092.69;5049000;28;20208;-81
2024/02/29 10:15:25;;;;;;;13.60;12.30;;;;;;;9.14;63.22;101112.66;5057322;28;20240;-81
2024/02/29 10:17:52;;;;;;;13.70;12.50;;;;;;;9.15;63.50;101119.59;5063076;28;20243;-81
2024/02/29 10:20:21;;;;;;;15.00;13.60;;;;;;;9.22;63.65;101123.06;5056189;28;20209;-80
2024/02/29 10:22:48;;;;;;;14.73;13.37;;;;;;;9.04;63.08;101136.09;5056208;28;20664;-80
2024/02/29 10:25:15;;;;;;;13.73;12.43;;;;;;;9.16;62.52;101133.50;5056021;28;20225;-79
2024/02/29 10:27:42;;;;;;;15.47;12.63;;;;;;;9.26;62.69;101150.00;5050918;28;20220;-78
2024/02/29 10:30:10;;;;;;;16.38;14.90;;;;;;;9.23;63.31;101135.22;5035835;28;20463;-80
2024/02/29 10:32:36;;;;;;;14.53;12.27;;;;;;;9.33;62.83;101129.09;5053126;28;20688;-78
2024/02/29 10:35:16;;;;;;;14.87;13.43;;;;;;;9.50;62.59;101136.03;5054043;28;20229;-86
2024/02/29 10:37:44;;;;;;;13.97;12.50;;;;;;;9.54;61.86;101143.81;5062479;28;20255;-84
2024/02/29 10:40:12;;;;;;;13.70;12.43;;;;;;;9.59;62.66;101141.19;5058089;28;20209;-86
2024/02/29 10:42:40;;;;;;;12.77;11.67;;;;;;;9.72;61.93;101142.03;5053988;28;20205;-88
2024/02/29 10:45:12;;;;;;;13.30;11.93;;;;;;;9.80;62.34;101139.38;5060702;28;20224;-78
2024/02/29 10:47:45;;;;;;;13.37;12.00;;;;;;;9.75;61.33;101152.41;5058099;28;20201;-85
2024/02/29 10:50:16;;;;;;;13.10;11.90;;;;;;;9.48;60.26;101174.25;5060039;28;20590;-83
2024/02/29 10:52:59;;;;;;;13.23;12.03;;;;;;;9.60;61.39;101168.13;5054380;28;20213;-84
2024/02/29 10:55:27;;;;;;;12.17;10.97;;;;;;;9.63;61.57;101166.41;5054694;28;20229;-83
2024/02/29 10:58:05;;;;;;;13.63;12.37;;;;;;;9.86;61.36;101160.22;5067638;28;20659;-84
2024/02/29 11:00:32;;;;;;;13.27;11.87;;;;;;;9.78;60.33;101173.28;5040198;28;20237;-82
2024/02/29 11:02:59;;;;;;;12.57;11.40;;;;;;;9.92;61.56;101174.09;5054443;28;20211;-79
2024/02/29 11:05:26;;;;;;;12.83;11.60;;;;;;;9.86;60.56;101179.31;5055373;28;20382;-79
2024/02/29 11:07:54;;;;;;;11.97;10.97;;;;;;;9.79;59.97;101190.69;5067423;28;20193;-79
2024/02/29 11:10:21;;;;;;;12.43;11.33;;;;;;;9.78;59.61;101191.53;5057864;28;20233;-79
2024/02/29 11:12:48;;;;;;;14.30;11.00;;;;;;;9.98;60.66;101183.63;5054991;28;20271;-79
2024/02/29 11:15:14;;;;;;;12.00;10.90;;;;;;;9.93;58.88;101201.91;5054209;28;20278;-79